createdAt,value
2023-02-14T00:04:00.750Z,0.90
2023-02-14T00:09:02.502Z,0.90
2023-02-14T00:14:23.334Z,0.76
2023-02-14T00:19:24.951Z,0.65
2023-02-14T00:24:27.002Z,0.59
2023-02-14T00:29:31.336Z,0.61
2023-02-14T00:34:33.584Z,0.65
2023-02-14T00:39:35.158Z,0.69
2023-02-14T00:44:37.975Z,0.77
2023-02-14T00:49:39.672Z,0.76
2023-02-14T00:54:41.206Z,0.74
2023-02-14T00:59:42.761Z,0.67
2023-02-14T01:04:44.381Z,0.50
2023-02-14T01:09:45.931Z,0.46
2023-02-14T01:14:47.539Z,0.42
2023-02-14T01:19:52.304Z,0.31
2023-02-14T01:24:53.842Z,0.22
2023-02-14T01:29:56.707Z,0.19
2023-02-14T01:34:58.685Z,0.26
2023-02-14T01:40:00.464Z,0.38
2023-02-14T01:45:21.122Z,0.39
2023-02-14T01:50:28.889Z,0.49
2023-02-14T01:55:34.068Z,0.47
2023-02-14T02:00:55.889Z,0.35
2023-02-14T02:06:11.107Z,0.28
2023-02-14T02:11:12.644Z,0.32
2023-02-14T02:16:44.760Z,0.38
2023-02-14T02:21:55.134Z,0.32
2023-02-14T02:27:32.059Z,0.25
2023-02-14T02:33:01.551Z,0.13
2023-02-14T02:38:23.395Z,-0.11
2023-02-14T02:43:36.935Z,-0.28
2023-02-14T02:48:47.875Z,-0.41
2023-02-14T02:54:02.890Z,-0.58
2023-02-14T02:59:20.852Z,-0.66
2023-02-14T03:04:46.687Z,-0.68
2023-02-14T03:09:54.555Z,-0.63
2023-02-14T03:15:22.613Z,-0.64
2023-02-14T03:20:33.681Z,-0.81
2023-02-14T03:25:52.878Z,-1.06
2023-02-14T03:31:28.430Z,-1.23
2023-02-14T03:36:48.981Z,-1.13
2023-02-14T03:41:59.875Z,-1.04
2023-02-14T03:47:07.875Z,-1.00
2023-02-14T03:52:11.218Z,-0.98
2023-02-14T03:57:21.849Z,-0.96
2023-02-14T04:02:34.967Z,-0.96
2023-02-14T04:07:46.993Z,-0.97
2023-02-14T04:12:48.746Z,-0.97
2023-02-14T04:18:08.810Z,-1.01
2023-02-14T04:23:10.438Z,-0.99
2023-02-14T04:28:12.908Z,-0.95
2023-02-14T04:33:14.444Z,-0.92
2023-02-14T04:38:16.003Z,-1.00
2023-02-14T04:43:18.120Z,-0.99
2023-02-14T04:48:19.709Z,-1.20
2023-02-14T04:53:22.120Z,-1.29
2023-02-14T04:58:23.670Z,-1.15
2023-02-14T05:03:27.598Z,-1.10
2023-02-14T05:08:29.234Z,-1.03
2023-02-14T05:13:32.104Z,-1.23
2023-02-14T05:18:33.801Z,-1.40
2023-02-14T05:23:35.396Z,-1.45
2023-02-14T05:28:37.041Z,-1.50
2023-02-14T05:33:38.593Z,-1.43
2023-02-14T05:38:40.111Z,-1.51
2023-02-14T05:43:41.702Z,-1.58
2023-02-14T05:48:43.376Z,-1.68
2023-02-14T05:53:44.978Z,-1.80
2023-02-14T05:58:46.730Z,-1.72
2023-02-14T06:03:48.408Z,-1.71
2023-02-14T06:08:50.002Z,-1.63
2023-02-14T06:13:51.735Z,-1.57
2023-02-14T06:18:53.459Z,-1.51
2023-02-14T06:23:55.220Z,-1.51
2023-02-14T06:28:59.019Z,-1.57
2023-02-14T06:34:00.920Z,-1.58
2023-02-14T06:39:02.657Z,-1.50
2023-02-14T06:44:04.321Z,-1.64
2023-02-14T06:49:05.969Z,-1.73
2023-02-14T06:54:07.807Z,-1.77
2023-02-14T06:59:09.396Z,-1.84
2023-02-14T07:04:11.013Z,-1.90
2023-02-14T07:09:16.880Z,-1.81
2023-02-14T07:14:18.519Z,-1.74
2023-02-14T07:19:20.343Z,-1.72
2023-02-14T07:24:24.376Z,-1.62
2023-02-14T07:29:31.334Z,-1.50
2023-02-14T07:34:33.147Z,-1.52
2023-02-14T07:39:34.723Z,-1.57
2023-02-14T07:44:38.945Z,-1.60
2023-02-14T07:49:40.482Z,-1.58
2023-02-14T07:54:42.201Z,-1.43
2023-02-14T07:59:49.522Z,-1.23
2023-02-14T08:04:52.407Z,-1.12
2023-02-14T08:09:54.178Z,-1.04
2023-02-14T08:15:15.924Z,-0.94
2023-02-14T08:20:17.724Z,-0.86
2023-02-14T08:25:25.374Z,-0.84
2023-02-14T08:30:26.985Z,-0.60
2023-02-14T08:35:28.595Z,-0.46
2023-02-14T08:40:30.667Z,-0.54
2023-02-14T08:45:32.388Z,-0.53
2023-02-14T08:50:35.016Z,-0.41
2023-02-14T08:55:37.306Z,-0.30
2023-02-14T09:00:39.150Z,-0.35
2023-02-14T09:05:40.868Z,-0.35
2023-02-14T09:10:42.833Z,-0.30
2023-02-14T09:15:44.436Z,-0.37
2023-02-14T09:20:46.104Z,-0.26
2023-02-14T09:25:47.627Z,-0.35
2023-02-14T09:30:49.256Z,-0.42
2023-02-14T09:35:50.852Z,-0.27
2023-02-14T09:40:52.409Z,0.00
2023-02-14T09:45:57.605Z,-0.04
2023-02-14T09:51:25.516Z,0.16
2023-02-14T09:56:51.564Z,0.57
2023-02-14T10:02:07.148Z,0.84
2023-02-14T10:07:56.483Z,1.20
2023-02-14T10:13:19.294Z,1.18
2023-02-14T10:18:25.787Z,0.96
2023-02-14T10:23:49.426Z,0.54
2023-02-14T10:28:51.054Z,0.50
2023-02-14T10:34:17.607Z,0.90
2023-02-14T10:39:40.628Z,1.54
2023-02-14T10:44:54.869Z,2.05
2023-02-14T10:50:15.408Z,2.40
2023-02-14T10:55:39.894Z,2.54
2023-02-14T11:00:48.957Z,2.70
2023-02-14T11:05:51.035Z,2.77
2023-02-14T11:10:55.567Z,3.01
2023-02-14T11:16:08.943Z,2.96
2023-02-14T11:21:17.871Z,2.43
2023-02-14T11:26:29.997Z,2.52
2023-02-14T11:31:37.714Z,2.84
2023-02-14T11:36:42.199Z,3.25
2023-02-14T11:41:56.184Z,3.45
2023-02-14T11:47:15.941Z,3.37
2023-02-14T11:52:19.601Z,3.51
2023-02-14T11:57:33.303Z,3.58
2023-02-14T12:02:45.731Z,3.65
2023-02-14T12:07:59.992Z,3.94
2023-02-14T12:13:04.241Z,4.43
2023-02-14T12:18:22.462Z,4.48
2023-02-14T12:23:39.320Z,4.47
2023-02-14T12:28:48.160Z,4.08
2023-02-14T12:33:50.679Z,3.85
2023-02-14T12:39:08.587Z,4.04
2023-02-14T12:44:38.032Z,4.48
2023-02-14T12:50:16.809Z,4.74
2023-02-14T12:55:28.982Z,4.52
2023-02-14T13:00:57.334Z,4.29
2023-02-14T13:06:10.265Z,4.35
2023-02-14T13:11:47.412Z,4.25
2023-02-14T13:16:57.550Z,4.30
2023-02-14T13:22:01.213Z,4.05
2023-02-14T13:27:06.907Z,3.76
2023-02-14T13:32:14.241Z,3.62
2023-02-14T13:37:23.857Z,3.62
2023-02-14T13:42:46.900Z,3.64
2023-02-14T13:47:48.465Z,3.49
2023-02-14T13:52:50.242Z,3.25
2023-02-14T13:58:06.732Z,3.27
2023-02-14T14:03:14.697Z,3.33
2023-02-14T14:08:27.581Z,3.20
2023-02-14T14:13:42.689Z,3.23
2023-02-14T14:18:44.510Z,3.26
2023-02-14T14:24:04.066Z,3.29
2023-02-14T14:29:18.200Z,3.21
2023-02-14T14:34:20.155Z,3.19
2023-02-14T14:39:31.472Z,3.23
2023-02-14T14:44:35.326Z,3.29
2023-02-14T14:49:36.921Z,3.28
2023-02-14T14:54:39.577Z,3.24
2023-02-14T14:59:41.369Z,3.34
2023-02-14T15:04:42.941Z,3.41
2023-02-14T15:09:44.764Z,3.49
2023-02-14T15:14:54.471Z,3.52
2023-02-14T15:19:58.407Z,3.57
2023-02-14T15:25:00.381Z,3.60
2023-02-14T15:30:09.845Z,3.61
2023-02-14T15:35:14.748Z,3.54
2023-02-14T15:40:27.862Z,3.39
2023-02-14T15:45:30.909Z,3.22
2023-02-14T15:50:35.315Z,3.02
2023-02-14T15:55:37.077Z,2.86
2023-02-14T16:00:38.706Z,2.66
2023-02-14T16:05:46.873Z,2.51
2023-02-14T16:11:04.495Z,2.34
2023-02-14T16:16:17.069Z,2.18
2023-02-14T16:21:19.983Z,1.98
2023-02-14T16:26:21.680Z,1.82
2023-02-14T16:31:25.228Z,1.63
2023-02-14T16:36:29.480Z,1.42
2023-02-14T16:41:33.854Z,1.26
2023-02-14T16:46:35.722Z,1.08
2023-02-14T16:51:37.674Z,0.91
2023-02-14T16:56:44.488Z,0.72
2023-02-14T17:01:46.251Z,0.57
2023-02-14T17:06:53.927Z,0.49
2023-02-14T17:11:58.561Z,0.39
2023-02-14T17:17:00.457Z,0.22
2023-02-14T17:22:04.462Z,0.11
2023-02-14T17:27:07.531Z,-0.03
2023-02-14T17:32:12.977Z,-0.08
2023-02-14T17:37:14.662Z,-0.19
2023-02-14T17:42:16.191Z,-0.38
2023-02-14T17:47:18.279Z,-0.46
2023-02-14T17:52:21.990Z,-0.51
2023-02-14T17:57:23.840Z,-0.58
2023-02-14T18:02:25.851Z,-0.69
2023-02-14T18:07:27.407Z,-0.76
2023-02-14T18:12:28.945Z,-0.87
2023-02-14T18:17:30.473Z,-0.95
2023-02-14T18:22:32.062Z,-1.02
2023-02-14T18:27:33.588Z,-1.03
2023-02-14T18:32:35.192Z,-1.09
2023-02-14T18:37:36.783Z,-1.18
2023-02-14T18:42:38.299Z,-1.40
2023-02-14T18:47:39.954Z,-1.50
2023-02-14T18:52:41.586Z,-1.38
2023-02-14T18:57:43.109Z,-1.17
2023-02-14T19:02:44.793Z,-0.86
2023-02-14T19:07:46.356Z,-0.64
2023-02-14T19:12:47.926Z,-0.47
2023-02-14T19:17:49.655Z,-0.34
2023-02-14T19:22:51.231Z,-0.19
2023-02-14T19:27:52.912Z,0.00
2023-02-14T19:32:54.460Z,0.17
2023-02-14T19:37:56.002Z,0.24
2023-02-14T19:42:57.839Z,0.30
2023-02-14T19:47:59.419Z,0.48
2023-02-14T19:53:00.948Z,0.65
2023-02-14T19:58:02.706Z,0.75
2023-02-14T20:03:04.296Z,0.64
2023-02-14T20:08:06.637Z,0.67
2023-02-14T20:13:08.199Z,0.73
2023-02-14T20:18:09.760Z,0.84
2023-02-14T20:23:11.289Z,0.83
2023-02-14T20:28:12.824Z,0.74
2023-02-14T20:33:14.351Z,0.82
2023-02-14T20:38:16.590Z,0.63
2023-02-14T20:43:18.149Z,0.58
2023-02-14T20:48:19.687Z,0.57
2023-02-14T20:53:21.869Z,0.63
2023-02-14T20:58:23.378Z,0.78
2023-02-14T21:03:24.970Z,0.82
2023-02-14T21:08:26.558Z,0.85
2023-02-14T21:13:28.164Z,0.91
2023-02-14T21:18:30.664Z,0.91
2023-02-14T21:23:32.282Z,0.86
2023-02-14T21:28:33.868Z,0.92
2023-02-14T21:33:36.171Z,0.87
2023-02-14T21:38:37.940Z,0.83
2023-02-14T21:43:42.082Z,0.84
2023-02-14T21:49:03.189Z,0.94
2023-02-14T21:54:05.408Z,1.09
2023-02-14T21:59:07.324Z,1.16
2023-02-14T22:04:11.367Z,1.21
2023-02-14T22:09:14.197Z,1.18
2023-02-14T22:14:16.032Z,1.18
2023-02-14T22:19:17.606Z,1.30
2023-02-14T22:24:19.195Z,1.32
2023-02-14T22:29:20.911Z,1.31
2023-02-14T22:34:22.440Z,1.17
2023-02-14T22:39:24.060Z,1.01
2023-02-14T22:44:25.684Z,0.93
2023-02-14T22:49:27.222Z,0.95
2023-02-14T22:54:28.742Z,0.91
2023-02-14T22:59:32.108Z,0.91
2023-02-14T23:04:33.608Z,0.99
2023-02-14T23:09:35.144Z,1.04
2023-02-14T23:14:55.489Z,0.95
2023-02-14T23:20:15.754Z,0.71
2023-02-14T23:25:17.395Z,0.64
2023-02-14T23:30:19.467Z,0.67
2023-02-14T23:35:21.047Z,0.54
2023-02-14T23:40:22.657Z,0.45
2023-02-14T23:45:36.066Z,0.35
2023-02-14T23:50:38.255Z,0.19
2023-02-14T23:55:39.761Z,0.02
